Flight Track Log - Related Links

Times and Time Zones

All times are in EDT time to prevent confusion due to time zone crossing. See the RPA3161 flight status page for this flight to view local times or setup timezone preferences in your user account.

Time Position Orientation Groundspeed Altitude Reporting Facility
EDT Latitude Longitude Course Direction KTS MPH feet Rate Location/Type
Tue 12:21:00 PM 44.1842 -73.2560 195° South  Level FlightAware Approximate
Tue 12:21:03 PM 44.3592 -73.1283 195° South 222 255 6,000  Level Boston Center
Tue 12:22:00 PM 44.0895 -73.2915 195° South  Level FlightAware Approximate
Tue 12:22:03 PM 44.2928 -73.1189 174° South 241 277 8,900  Level Boston Center
Tue 12:23:00 PM 43.9942 -73.3242 194° South  Level FlightAware Approximate
Tue 12:23:03 PM 44.2136 -73.1033 172° South 272 313 11,400  Level Boston Center
Tue 12:24:00 PM 43.8990 -73.3567 195° South  Level FlightAware Approximate
Tue 12:24:03 PM 44.1283 -73.0908 174° South 302 348 13,800  Level Boston Center
Tue 12:25:00 PM 43.8043 -73.3923 195° South  Level FlightAware Approximate
Tue 12:25:03 PM 44.0367 -73.0783 174° South 324 373 16,300  Level Boston Center
Tue 12:26:00 PM 43.7096 -73.4277 195° South  Level FlightAware Approximate
Tue 12:26:03 PM 43.9472 -73.0631 173° South 330 380 18,000  Level Boston Center
Tue 12:27:03 PM 43.8514 -73.0447 172° South 337 388 20,100 2,050 Climbing Boston Center
Tue 12:28:03 PM 43.7536 -73.0264 172° South 347 399 22,100 1,750 Climbing Boston Center
Tue 12:29:03 PM 43.6744 -73.0083 171° South 354 407 23,600 1,650 Climbing Boston Center
Tue 12:30:03 PM 43.5703 -72.9903 173° South 354 407 25,400 2,300 Climbing Boston Center
Tue 12:31:03 PM 43.4597 -73.0178 190° South 354 407 28,200 2,300 Climbing Boston Center
Tue 12:32:03 PM 43.3825 -73.0428 193° South 349 402 30,000 900 Climbing Boston Center
Tue 12:33:03 PM 43.2906 -73.0675 191° South 341 392 30,000 500 Level Boston Center
Tue 12:34:03 PM 43.2008 -73.0922 191° South 335 386 31,000 1,450 Climbing Boston Center
Tue 12:35:03 PM 43.1069 -73.1142 190° South 335 386 32,900 1,500 Climbing Boston Center
Tue 12:36:03 PM 43.0236 -73.1386 192° South 324 373 34,000 550 Climbing Boston Center
Tue 12:37:03 PM 42.9400 -73.1606 191° South 314 361 34,000  Level Boston Center
Tue 12:38:03 PM 42.8461 -73.1847 191° South 314 361 34,000  Level Boston Center
Tue 12:39:03 PM 42.7606 -73.2064 191° South 314 361 34,000  Level Boston Center
Tue 12:40:03 PM 42.6747 -73.2308 192° South 314 361 34,000  Level Boston Center
Tue 12:41:03 PM 42.5956 -73.2439 187° South 314 361 34,000  Level Boston Center
Tue 12:42:03 PM 42.5100 -73.2625 189° South 314 361 34,000  Level Boston Center
Tue 12:43:15 PM 42.4244 -73.2839 190° South 314 361 34,000  Level Boston Center
Tue 12:44:15 PM 42.3072 -73.3244 194° South 326 375 34,000  Level Boston Center
Tue 12:45:15 PM 42.2217 -73.3483 192° South 331 381 34,000  Level Boston Center
Tue 12:46:15 PM 42.1425 -73.3642 188° South 326 375 34,000  Level Boston Center
Tue 12:47:15 PM 42.0442 -73.3933 192° South 327 376 34,000  Level Boston Center
Tue 12:48:15 PM 41.9586 -73.4144 190° South 332 382 34,000  Level Boston Center
Tue 12:49:15 PM 41.8708 -73.4381 191° South 332 382 34,000  Level Boston Center
Tue 12:51:39 PM 41.6656 -73.4869 190° South 316 364 34,000  Level New York Center
Tue 12:52:40 PM 41.5942 -73.5117 195° South 311 358 34,000  Level New York Center
Tue 12:53:41 PM 41.5139 -73.5611 205° Southwest 306 352 34,000  Level New York Center
Tue 12:54:41 PM 41.4378 -73.6161 208° Southwest 316 364 34,000  Level New York Center
Tue 12:55:42 PM 41.3572 -73.6678 206° Southwest 322 371 34,000  Level New York Center
Tue 12:56:39 PM 41.2789 -73.7169 205° Southwest 322 371 34,000  Level New York Center
Tue 12:57:41 PM 41.1986 -73.7686 206° Southwest 322 371 34,000  Level New York Center
Tue 12:58:39 PM 41.1300 -73.8369 217° Southwest 327 376 34,000  Level New York Center
Tue 12:59:41 PM 41.0733 -73.9336 232° Southwest 320 368 34,000 -450 Level New York Center
Tue 01:00:39 PM 41.0167 -74.0328 233° Southwest 334 384 33,100 -1,311 Descending New York Center
Tue 01:01:40 PM 40.9553 -74.1342 231° Southwest 349 402 31,400 -1,736 Descending New York Center
Tue 01:02:40 PM 40.8900 -74.2353 230° Southwest 360 414 29,600 -1,700 Descending New York Center
Tue 01:03:40 PM 40.8286 -74.3389 232° Southwest 365 420 28,000 -793 Descending New York Center
Tue 01:04:41 PM 40.7650 -74.4425 231° Southwest 365 420 28,000 -400 Level New York Center
Tue 01:05:40 PM 40.7033 -74.5431 231° Southwest 365 420 27,200 -1,350 Descending New York Center
Tue 01:06:41 PM 40.6378 -74.6381 228° Southwest 360 414 25,300 -1,835 Descending New York Center
Tue 01:07:41 PM 40.5700 -74.7353 227° Southwest 355 409 23,500 -1,678 Descending New York Center
Tue 01:08:39 PM 40.5083 -74.8300 229° Southwest 355 409 22,000 -756 Descending New York Center
Tue 01:09:40 PM 40.4447 -74.9217 228° Southwest 349 402 22,000  Level New York Center
Tue 01:10:40 PM 40.3808 -75.0186 229° Southwest 349 402 22,000  Level New York Center
Tue 01:11:41 PM 40.3150 -75.1125 227° Southwest 349 402 22,000  Level New York Center
Tue 01:12:41 PM 40.2511 -75.2064 228° Southwest 349 402 22,000  Level New York Center
Tue 01:13:39 PM 40.1783 -75.3133 228° Southwest 349 402 22,000  Level New York Center
Tue 01:14:40 PM 40.1142 -75.4067 228° Southwest 349 402 22,000  Level New York Center
Tue 01:15:40 PM 40.0481 -75.4944 225° Southwest 349 402 22,000 -50 Level New York Center
Tue 01:16:41 PM 39.9817 -75.5875 227° Southwest 349 402 21,900 -605 Descending New York Center
Tue 01:17:39 PM 39.9156 -75.6806 227° Southwest 349 402 20,800 -1,068 Descending New York Center
Tue 01:18:39 PM 39.8631 -75.7878 237° Southwest 354 407 19,800 -942 Descending New York Center
Tue 01:19:40 PM 39.8089 -75.8783 232° Southwest 354 407 18,900 -934 Descending New York Center
Tue 01:20:41 PM 39.7567 -75.9800 236° Southwest 349 402 17,900 -942 Descending New York Center
Tue 01:21:41 PM 39.6997 -76.0892 236° Southwest 337 388 17,000 -1,050 Descending New York Center
Tue 01:22:41 PM 39.6472 -76.1875 235° Southwest 337 388 15,800 -1,295 Descending New York Center
Tue 01:23:09 PM 39.6167 -76.2333 229° Southwest 330 380 15,100 -1,295 Descending Potomac TRACON
Tue 01:24:09 PM 39.5500 -76.3333 229° Southwest 329 379 13,900 -1,200 Descending Potomac TRACON
Tue 01:25:09 PM 39.4833 -76.4000 218° Southwest 325 374 12,700 -1,000 Descending Potomac TRACON
Tue 01:26:03 PM 39.4167 -76.4500 210° Southwest 299 344 12,000 -368 Descending Potomac TRACON
Tue 01:27:03 PM 39.3500 -76.5000 210° Southwest 302 348 12,000  Level Potomac TRACON
Tue 01:28:09 PM 39.2667 -76.5833 218° Southwest 302 348 12,000 -709 Level Potomac TRACON
Tue 01:29:10 PM 39.2000 -76.6333 210° Southwest 296 341 10,500 -1,043 Descending Potomac TRACON
Tue 01:30:04 PM 39.1500 -76.7000 226° Southwest 287 330 10,000 -313 Descending Potomac TRACON
Tue 01:31:05 PM 39.0833 -76.7667 218° Southwest 289 333 9,900 -942 Descending Potomac TRACON
Tue 01:32:05 PM 39.0333 -76.8333 226° Southwest 281 323 8,100 -1,800 Descending Potomac TRACON
Tue 01:33:05 PM 38.9667 -76.9000 218° Southwest 277 319 6,300 -1,050 Descending Potomac TRACON
Tue 01:34:05 PM 38.9000 -76.9500 210° Southwest 275 316 6,000 -150 Descending Potomac TRACON
Tue 01:35:05 PM 38.8333 -76.9500 180° South 242 278 6,000 -150 Level Potomac TRACON
Tue 01:36:05 PM 38.7833 -76.9500 180° South 202 232 5,700 -737 Descending Potomac TRACON
Tue 01:36:59 PM 38.7333 -76.9333 165° South 192 221 4,600 -1,158 Descending Potomac TRACON
Tue 01:37:59 PM 38.6833 -76.9500 195° South 188 216 3,500 -1,190 Descending Potomac TRACON
Tue 01:39:00 PM 38.7000 -77.0167 288° West 172 198 2,200 -744 Descending Potomac TRACON
Tue 01:40:00 PM 38.7500 -77.0333 345° North 169 194 2,000 -496 Descending Potomac TRACON
Tue 01:41:01 PM 38.7833 -77.0333 360° North 151 174 1,200 -783 Descending Potomac TRACON
Tue 01:41:55 PM 38.8167 -77.0333 360° North 119 137 500 -778 Descending Potomac TRACON

Login

Don't have an account? Register now (free) for customized features, flight alerts, and more!